createdAt,value
2022-09-04T00:00:58.166Z,14.17
2022-09-04T00:04:45.785Z,14.14
2022-09-04T00:08:42.436Z,14.10
2022-09-04T00:12:29.695Z,14.06
2022-09-04T00:16:15.689Z,14.02
2022-09-04T00:20:02.815Z,14.03
2022-09-04T00:23:51.987Z,14.05
2022-09-04T00:27:43.516Z,14.09
2022-09-04T00:31:29.315Z,14.09
2022-09-04T00:35:15.524Z,14.08
2022-09-04T00:39:06.534Z,14.07
2022-09-04T00:43:08.990Z,14.05
2022-09-04T00:47:07.298Z,14.08
2022-09-04T00:51:15.124Z,14.05
2022-09-04T00:55:10.769Z,14.05
2022-09-04T00:59:05.455Z,14.06
2022-09-04T01:03:02.244Z,14.11
2022-09-04T01:06:51.188Z,14.13
2022-09-04T01:10:42.492Z,14.14
2022-09-04T01:14:34.398Z,14.15
2022-09-04T01:18:25.602Z,14.15
2022-09-04T01:22:17.650Z,14.14
2022-09-04T01:26:08.860Z,14.11
2022-09-04T01:30:00.130Z,14.08
2022-09-04T01:33:47.569Z,14.05
2022-09-04T01:37:42.003Z,14.05
2022-09-04T01:41:29.367Z,14.04
2022-09-04T01:45:12.315Z,14.07
2022-09-04T01:49:05.496Z,14.04
2022-09-04T01:52:56.631Z,14.05
2022-09-04T01:56:45.483Z,14.05
2022-09-04T02:00:31.072Z,14.09
2022-09-04T02:04:24.142Z,14.07
2022-09-04T02:08:18.628Z,14.04
2022-09-04T02:12:10.031Z,14.05
2022-09-04T02:16:01.534Z,14.03
2022-09-04T02:19:58.951Z,14.03
2022-09-04T02:23:46.809Z,14.02
2022-09-04T02:27:36.599Z,14.02
2022-09-04T02:31:27.238Z,14.04
2022-09-04T02:35:16.729Z,14.05
2022-09-04T02:39:05.025Z,14.04
2022-09-04T02:42:59.699Z,14.02
2022-09-04T02:46:51.854Z,14.01
2022-09-04T02:50:46.178Z,13.98
2022-09-04T02:54:40.415Z,13.99
2022-09-04T02:58:33.689Z,13.97
2022-09-04T03:02:23.001Z,13.93
2022-09-04T03:06:10.091Z,13.91
2022-09-04T03:09:55.656Z,13.92
2022-09-04T03:13:43.024Z,13.92
2022-09-04T03:17:31.018Z,13.98
2022-09-04T03:21:19.280Z,14.05
2022-09-04T03:25:13.206Z,14.07
2022-09-04T03:29:03.326Z,14.06
2022-09-04T03:32:52.363Z,13.99
2022-09-04T03:36:41.263Z,13.92
2022-09-04T03:40:35.161Z,13.87
2022-09-04T03:44:25.125Z,13.84
2022-09-04T03:48:21.228Z,13.83
2022-09-04T03:52:08.040Z,13.78
2022-09-04T03:56:06.908Z,13.76
2022-09-04T04:00:04.742Z,13.76
2022-09-04T04:04:09.157Z,13.72
2022-09-04T04:08:00.825Z,13.72
2022-09-04T04:12:13.411Z,13.73
2022-09-04T04:16:06.777Z,13.66
2022-09-04T04:20:03.309Z,13.65
2022-09-04T04:24:15.399Z,13.67
2022-09-04T04:28:17.145Z,13.70
2022-09-04T04:32:21.031Z,13.72
2022-09-04T04:36:10.074Z,13.72
2022-09-04T04:39:58.197Z,13.71
2022-09-04T04:43:57.587Z,13.69
2022-09-04T04:48:00.151Z,13.67
2022-09-04T04:51:52.610Z,13.67
2022-09-04T04:55:40.407Z,13.67
2022-09-04T04:59:27.066Z,13.67
2022-09-04T05:03:20.229Z,13.71
2022-09-04T05:07:08.549Z,13.75
2022-09-04T05:10:54.895Z,13.76
2022-09-04T05:14:45.856Z,13.77
2022-09-04T05:18:33.270Z,13.81
2022-09-04T05:22:21.389Z,13.82
2022-09-04T05:26:12.738Z,13.86
2022-09-04T05:30:01.547Z,13.86
2022-09-04T05:33:57.254Z,13.89
2022-09-04T05:37:45.043Z,13.91
2022-09-04T05:41:37.862Z,14.00
2022-09-04T05:45:25.417Z,14.11
2022-09-04T05:49:17.701Z,14.22
2022-09-04T05:53:42.016Z,14.30
2022-09-04T05:57:35.795Z,14.36
2022-09-04T06:01:38.917Z,14.42
2022-09-04T06:05:30.997Z,14.49
2022-09-04T06:09:29.602Z,14.55
2022-09-04T06:13:32.760Z,14.65
2022-09-04T06:17:29.826Z,14.72
2022-09-04T06:21:51.974Z,14.81
2022-09-04T06:26:01.534Z,14.87
2022-09-04T06:29:53.294Z,14.95
2022-09-04T06:33:47.115Z,15.06
2022-09-04T06:37:38.322Z,15.14
2022-09-04T06:41:35.597Z,15.25
2022-09-04T06:45:26.853Z,15.37
2022-09-04T06:49:13.299Z,15.49
2022-09-04T06:53:06.232Z,15.62
2022-09-04T06:57:24.862Z,15.75
2022-09-04T07:01:11.823Z,15.90
2022-09-04T07:05:04.099Z,16.01
2022-09-04T07:09:01.174Z,16.14
2022-09-04T07:13:13.173Z,16.27
2022-09-04T07:17:05.087Z,16.37
2022-09-04T07:20:55.637Z,16.49
2022-09-04T07:24:53.503Z,16.61
2022-09-04T07:28:47.263Z,16.73
2022-09-04T07:32:35.730Z,16.83
2022-09-04T07:36:25.306Z,16.93
2022-09-04T07:40:16.095Z,17.03
2022-09-04T07:44:04.539Z,17.16
2022-09-04T07:47:55.085Z,17.31
2022-09-04T07:51:44.329Z,17.37
2022-09-04T07:55:37.493Z,17.48
2022-09-04T07:59:36.861Z,17.56
2022-09-04T08:03:31.600Z,17.69
2022-09-04T08:07:20.878Z,17.87
2022-09-04T08:11:18.039Z,18.05
2022-09-04T08:15:10.836Z,18.10
2022-09-04T08:19:06.978Z,18.17
2022-09-04T08:23:05.587Z,18.24
2022-09-04T08:26:59.798Z,18.32
2022-09-04T08:30:50.546Z,18.39
2022-09-04T08:34:54.705Z,18.47
2022-09-04T08:38:56.598Z,18.62
2022-09-04T08:43:06.652Z,18.68
2022-09-04T08:47:24.184Z,18.72
2022-09-04T08:51:34.534Z,18.99
2022-09-04T08:55:34.720Z,19.08
2022-09-04T08:59:42.673Z,19.03
2022-09-04T09:03:51.675Z,19.23
2022-09-04T09:07:51.377Z,19.19
2022-09-04T09:11:50.041Z,19.25
2022-09-04T09:15:57.809Z,19.40
2022-09-04T09:19:55.635Z,19.43
2022-09-04T09:24:09.924Z,19.58
2022-09-04T09:28:34.217Z,19.54
2022-09-04T09:32:46.912Z,19.66
2022-09-04T09:37:02.834Z,19.93
2022-09-04T09:41:06.396Z,19.92
2022-09-04T09:45:06.224Z,19.92
2022-09-04T09:49:16.887Z,20.06
2022-09-04T09:53:29.709Z,20.05
2022-09-04T09:57:47.951Z,20.17
2022-09-04T10:01:50.026Z,20.28
2022-09-04T10:05:46.040Z,20.36
2022-09-04T10:09:49.906Z,20.34
2022-09-04T10:14:24.431Z,20.50
2022-09-04T10:18:43.906Z,20.69
2022-09-04T10:23:04.092Z,20.66
2022-09-04T10:27:19.889Z,20.70
2022-09-04T10:31:47.302Z,20.81
2022-09-04T10:35:34.321Z,21.15
2022-09-04T10:39:42.947Z,21.23
2022-09-04T10:43:47.069Z,21.24
2022-09-04T10:47:45.525Z,21.14
2022-09-04T10:52:10.645Z,21.22
2022-09-04T10:56:16.719Z,21.40
2022-09-04T11:00:09.310Z,21.53
2022-09-04T11:04:13.892Z,21.48
2022-09-04T11:08:26.199Z,21.43
2022-09-04T11:12:35.369Z,21.52
2022-09-04T11:16:57.835Z,21.64
2022-09-04T11:21:25.635Z,21.71
2022-09-04T11:25:47.185Z,21.52
2022-09-04T11:29:41.265Z,21.28
2022-09-04T11:34:10.123Z,21.19
2022-09-04T11:38:20.967Z,21.21
2022-09-04T11:42:28.964Z,21.26
2022-09-04T11:46:36.465Z,21.23
2022-09-04T11:50:38.656Z,21.25
2022-09-04T11:54:51.889Z,21.36
2022-09-04T11:59:16.577Z,21.52
2022-09-04T12:03:30.977Z,21.65
2022-09-04T12:07:28.294Z,21.88
2022-09-04T12:11:38.877Z,22.06
2022-09-04T12:15:54.635Z,22.23
2022-09-04T12:20:24.096Z,22.49
2022-09-04T12:24:23.174Z,22.85
2022-09-04T12:28:27.709Z,23.08
2022-09-04T12:32:27.716Z,23.44
2022-09-04T12:36:43.254Z,23.63
2022-09-04T12:40:34.516Z,23.90
2022-09-04T12:44:26.714Z,24.06
2022-09-04T12:48:14.964Z,24.45
2022-09-04T12:52:05.609Z,24.48
2022-09-04T12:56:03.092Z,24.56
2022-09-04T12:59:57.471Z,24.49
2022-09-04T13:03:47.300Z,24.54
2022-09-04T13:07:41.002Z,24.58
2022-09-04T13:11:37.256Z,24.44
2022-09-04T13:15:28.327Z,24.55
2022-09-04T13:19:17.327Z,24.33
2022-09-04T13:23:12.556Z,24.13
2022-09-04T13:27:15.848Z,24.04
2022-09-04T13:31:05.541Z,24.45
2022-09-04T13:35:03.907Z,24.56
2022-09-04T13:39:16.429Z,24.81
2022-09-04T13:43:34.327Z,25.10
2022-09-04T13:47:22.929Z,25.38
2022-09-04T13:51:18.955Z,25.49
2022-09-04T13:55:04.223Z,25.72
2022-09-04T13:58:51.471Z,25.83
2022-09-04T14:02:39.073Z,25.98
2022-09-04T14:06:23.339Z,26.15
2022-09-04T14:10:11.723Z,26.23
2022-09-04T14:14:30.923Z,26.48
2022-09-04T14:18:25.195Z,26.73
2022-09-04T14:22:16.651Z,26.85
2022-09-04T14:26:04.890Z,26.99
2022-09-04T14:30:03.469Z,27.25
2022-09-04T14:33:53.529Z,27.46
2022-09-04T14:38:00.343Z,27.47
2022-09-04T14:42:02.365Z,27.49
2022-09-04T14:46:07.044Z,27.65
2022-09-04T14:49:53.495Z,27.83
2022-09-04T14:53:36.398Z,27.95
2022-09-04T14:57:23.867Z,27.83
2022-09-04T15:01:10.155Z,27.91
2022-09-04T15:05:01.220Z,28.10
2022-09-04T15:08:45.161Z,28.34
2022-09-04T15:12:30.468Z,28.56
2022-09-04T15:16:28.954Z,28.76
2022-09-04T15:20:17.009Z,28.96
2022-09-04T15:24:07.702Z,28.99
2022-09-04T15:27:54.591Z,29.14
2022-09-04T15:31:38.793Z,29.25
2022-09-04T15:35:32.848Z,29.39
2022-09-04T15:39:29.189Z,29.49
2022-09-04T15:43:18.500Z,29.48
2022-09-04T15:47:06.840Z,29.68
2022-09-04T15:51:01.280Z,29.73
2022-09-04T15:55:03.962Z,29.85
2022-09-04T15:58:53.297Z,29.89
2022-09-04T16:02:42.935Z,29.93
2022-09-04T16:06:32.279Z,29.85
2022-09-04T16:10:18.046Z,29.91
2022-09-04T16:14:02.449Z,30.04
2022-09-04T16:17:47.050Z,30.06
2022-09-04T16:21:40.542Z,30.06
2022-09-04T16:25:28.974Z,30.04
2022-09-04T16:29:26.803Z,29.93
2022-09-04T16:33:27.377Z,29.76
2022-09-04T16:37:15.114Z,29.73
2022-09-04T16:41:01.582Z,29.51
2022-09-04T16:44:46.443Z,29.21
2022-09-04T16:48:34.922Z,28.83
2022-09-04T16:52:34.451Z,28.39
2022-09-04T16:56:26.266Z,28.01
2022-09-04T17:00:11.527Z,27.61
2022-09-04T17:04:13.778Z,27.26
2022-09-04T17:08:03.098Z,26.97
2022-09-04T17:11:55.766Z,26.61
2022-09-04T17:15:53.899Z,26.34
2022-09-04T17:19:40.090Z,26.11
2022-09-04T17:29:00.827Z,25.89
2022-09-04T17:29:14.871Z,25.61
2022-09-04T17:31:51.039Z,25.35
2022-09-04T17:40:42.242Z,25.13
2022-09-04T17:40:49.127Z,24.94
2022-09-04T17:44:10.241Z,24.77
2022-09-04T17:48:02.201Z,24.56
2022-09-04T17:51:51.636Z,24.38
2022-09-04T17:55:49.452Z,24.17
2022-09-04T17:59:38.975Z,23.97
2022-09-04T18:03:29.701Z,23.82
2022-09-04T18:07:21.900Z,23.66
2022-09-04T18:11:24.019Z,23.47
2022-09-04T18:15:12.990Z,23.31
2022-09-04T18:19:18.495Z,23.20
2022-09-04T18:23:14.437Z,23.09
2022-09-04T18:27:03.947Z,22.93
2022-09-04T18:37:07.651Z,22.84
2022-09-04T18:37:24.548Z,22.73
2022-09-04T18:39:09.221Z,22.52
2022-09-04T18:50:30.863Z,22.09
2022-09-04T18:50:40.488Z,22.34
2022-09-04T18:51:31.355Z,21.86
2022-09-04T18:55:18.232Z,21.69
2022-09-04T18:59:07.766Z,21.58
2022-09-04T19:02:54.416Z,21.57
2022-09-04T19:06:39.117Z,21.57
2022-09-04T19:10:25.615Z,21.44
2022-09-04T19:14:15.336Z,21.35
2022-09-04T19:18:01.207Z,21.29
2022-09-04T19:21:57.846Z,21.23
2022-09-04T19:25:44.381Z,21.16
2022-09-04T19:29:35.731Z,21.05
2022-09-04T19:33:31.778Z,20.96
2022-09-04T19:39:37.081Z,20.93
2022-09-04T19:45:55.021Z,20.94
2022-09-04T19:46:16.448Z,20.93
2022-09-04T19:53:19.281Z,20.90
2022-09-04T19:53:57.655Z,20.79
2022-09-04T19:57:44.028Z,20.78
2022-09-04T20:01:33.608Z,20.77
2022-09-04T20:05:21.546Z,20.74
2022-09-04T20:09:11.788Z,20.71
2022-09-04T20:13:01.888Z,20.67
2022-09-04T20:16:53.610Z,20.57
2022-09-04T20:20:46.076Z,20.43
2022-09-04T20:24:36.078Z,20.35
2022-09-04T20:28:24.577Z,20.27
2022-09-04T20:32:13.215Z,20.22
2022-09-04T20:36:03.874Z,20.16
2022-09-04T20:39:49.738Z,20.13
2022-09-04T20:43:49.635Z,20.03
2022-09-04T20:52:44.598Z,19.99
2022-09-04T20:52:48.975Z,19.94
2022-09-04T20:56:01.900Z,19.86
2022-09-04T21:03:13.906Z,19.77
2022-09-04T21:04:09.033Z,19.69
2022-09-04T21:07:57.757Z,19.59
2022-09-04T21:11:43.438Z,19.50
2022-09-04T21:15:34.704Z,19.45
2022-09-04T21:19:40.603Z,19.48
2022-09-04T21:23:56.526Z,19.42
2022-09-04T21:28:28.309Z,19.25
2022-09-04T21:32:36.306Z,19.20
2022-09-04T21:36:27.672Z,19.17
2022-09-04T21:40:51.582Z,19.13
2022-09-04T21:44:46.829Z,19.11
2022-09-04T21:48:48.669Z,19.04
2022-09-04T21:52:55.745Z,18.98
2022-09-04T22:02:31.479Z,18.98
2022-09-04T22:02:43.462Z,19.00
2022-09-04T22:05:25.222Z,18.98
2022-09-04T22:13:27.236Z,18.87
2022-09-04T22:13:47.857Z,18.80
2022-09-04T22:17:50.800Z,18.80
2022-09-04T22:21:47.903Z,18.77
2022-09-04T22:25:46.107Z,18.71
2022-09-04T22:29:48.818Z,18.65
2022-09-04T22:34:14.360Z,18.60
2022-09-04T22:38:30.378Z,18.58
2022-09-04T22:42:42.553Z,18.51
2022-09-04T22:46:39.647Z,18.46
2022-09-04T22:50:51.480Z,18.43
2022-09-04T22:54:48.476Z,18.42
2022-09-04T22:58:48.330Z,18.40
2022-09-04T23:03:09.573Z,18.39
2022-09-04T23:11:42.099Z,18.36
2022-09-04T23:14:00.478Z,18.31
2022-09-04T23:15:37.271Z,18.26
2022-09-04T23:26:39.155Z,18.20
2022-09-04T23:26:46.818Z,18.13
2022-09-04T23:28:27.568Z,18.07
2022-09-04T23:32:26.379Z,17.99
2022-09-04T23:36:33.415Z,17.90
2022-09-04T23:40:31.211Z,17.89
2022-09-04T23:44:34.477Z,17.86
2022-09-04T23:48:30.826Z,17.85
2022-09-04T23:52:22.954Z,17.83
2022-09-04T23:56:26.246Z,17.77
